createdAt,value
2023-01-26T00:01:13.383Z,-0.27
2023-01-26T00:03:39.837Z,-0.08
2023-01-26T00:06:12.757Z,-0.15
2023-01-26T00:08:42.810Z,-0.13
2023-01-26T00:11:10.292Z,-0.10
2023-01-26T00:13:37.131Z,-0.08
2023-01-26T00:16:08.032Z,-0.31
2023-01-26T00:18:34.357Z,-0.17
2023-01-26T00:21:01.767Z,0.06
2023-01-26T00:23:29.247Z,-0.11
2023-01-26T00:25:55.788Z,-0.11
2023-01-26T00:28:22.215Z,-0.05
2023-01-26T00:30:48.578Z,-0.23
2023-01-26T00:33:15.077Z,-0.15
2023-01-26T00:35:46.225Z,-0.11
2023-01-26T00:38:13.124Z,-0.14
2023-01-26T00:40:40.295Z,-0.11
2023-01-26T00:43:07.146Z,-0.01
2023-01-26T00:45:34.269Z,-0.01
2023-01-26T00:48:00.652Z,0.10
2023-01-26T00:50:27.064Z,-0.06
2023-01-26T00:52:53.931Z,-0.11
2023-01-26T00:55:20.311Z,-0.20
2023-01-26T00:57:49.327Z,-0.25
2023-01-26T01:00:20.179Z,-0.17
2023-01-26T01:02:46.503Z,-0.12
2023-01-26T01:05:12.840Z,-0.14
2023-01-26T01:07:39.172Z,-0.06
2023-01-26T01:10:05.591Z,-0.22
2023-01-26T01:12:31.971Z,-0.06
2023-01-26T01:14:58.498Z,-0.17
2023-01-26T01:17:24.894Z,-0.01
2023-01-26T01:19:51.233Z,0.22
2023-01-26T01:22:18.298Z,0.01
2023-01-26T01:24:44.634Z,0.10
2023-01-26T01:27:11.053Z,-0.06
2023-01-26T01:29:37.460Z,-0.19
2023-01-26T01:32:05.032Z,-0.06
2023-01-26T01:34:31.369Z,-0.19
2023-01-26T01:36:57.694Z,-0.35
2023-01-26T01:39:24.032Z,-0.25
2023-01-26T01:41:50.363Z,-0.40
2023-01-26T01:44:21.166Z,-0.50
2023-01-26T01:46:58.869Z,-0.40
2023-01-26T01:49:35.520Z,-0.47
2023-01-26T01:52:12.775Z,-0.47
2023-01-26T01:54:48.854Z,-0.41
2023-01-26T01:57:18.231Z,-0.43
2023-01-26T01:59:46.421Z,-0.50
2023-01-26T02:02:14.009Z,-0.51
2023-01-26T02:04:41.297Z,-0.40
2023-01-26T02:07:10.556Z,-0.48
2023-01-26T02:09:57.652Z,-0.44
2023-01-26T02:12:30.658Z,-0.34
2023-01-26T02:14:57.843Z,-0.41
2023-01-26T02:17:24.289Z,-0.65
2023-01-26T02:19:50.603Z,-0.38
2023-01-26T02:22:24.981Z,-0.24
2023-01-26T02:24:52.365Z,-0.15
2023-01-26T02:27:19.701Z,-0.23
2023-01-26T02:29:46.031Z,-0.27
2023-01-26T02:32:12.361Z,-0.37
2023-01-26T02:34:38.739Z,-0.23
2023-01-26T02:37:05.167Z,-0.39
2023-01-26T02:39:43.386Z,-0.41
2023-01-26T02:42:30.291Z,-0.30
2023-01-26T02:44:56.650Z,-0.34
2023-01-26T02:47:22.976Z,-0.28
2023-01-26T02:49:51.017Z,-0.30
2023-01-26T02:52:18.962Z,-0.36
2023-01-26T02:55:04.085Z,-0.33
2023-01-26T02:57:30.885Z,-0.29
2023-01-26T02:59:57.390Z,-0.31
2023-01-26T03:02:23.768Z,-0.24
2023-01-26T03:04:50.167Z,-0.19
2023-01-26T03:07:16.851Z,-0.30
2023-01-26T03:09:43.187Z,-0.18
2023-01-26T03:12:09.763Z,-0.14
2023-01-26T03:14:39.226Z,-0.28
2023-01-26T03:17:05.547Z,-0.60
2023-01-26T03:19:52.719Z,-0.32
2023-01-26T03:22:38.579Z,-0.23
2023-01-26T03:25:23.778Z,-0.20
2023-01-26T03:27:51.405Z,-0.21
2023-01-26T03:30:19.416Z,-0.28
2023-01-26T03:32:45.891Z,-0.39
2023-01-26T03:35:15.294Z,-0.41
2023-01-26T03:37:43.738Z,-0.33
2023-01-26T03:40:30.888Z,-0.15
2023-01-26T03:43:15.980Z,-0.23
2023-01-26T03:46:01.198Z,-0.24
2023-01-26T03:48:47.252Z,-0.12
2023-01-26T03:51:32.378Z,-0.31
2023-01-26T03:54:17.578Z,-0.57
2023-01-26T03:56:44.616Z,-0.47
2023-01-26T03:59:15.093Z,-0.68
2023-01-26T04:02:04.540Z,-0.46
2023-01-26T04:04:50.152Z,-0.32
2023-01-26T04:07:36.174Z,-0.43
2023-01-26T04:10:02.728Z,-0.32
2023-01-26T04:12:32.253Z,-0.38
2023-01-26T04:15:17.025Z,-0.25
2023-01-26T04:18:03.845Z,-0.25
2023-01-26T04:20:49.143Z,-0.15
2023-01-26T04:23:19.037Z,-0.28
2023-01-26T04:25:45.660Z,-0.36
2023-01-26T04:28:12.073Z,-0.53
2023-01-26T04:30:41.679Z,-0.42
2023-01-26T04:33:08.024Z,-0.70
2023-01-26T04:35:34.358Z,-0.49
2023-01-26T04:38:01.742Z,-0.58
2023-01-26T04:40:28.064Z,-0.41
2023-01-26T04:42:54.467Z,-0.46
2023-01-26T04:45:20.838Z,-0.39
2023-01-26T04:47:48.206Z,-0.28
2023-01-26T04:50:15.858Z,-0.17
2023-01-26T04:52:42.369Z,-0.19
2023-01-26T04:55:08.936Z,-0.11
2023-01-26T04:57:35.229Z,-0.11
2023-01-26T05:00:01.732Z,-0.24
2023-01-26T05:02:28.301Z,-0.22
2023-01-26T05:04:54.657Z,-0.21
2023-01-26T05:07:20.994Z,-0.27
2023-01-26T05:09:47.423Z,-0.17
2023-01-26T05:12:32.356Z,-0.15
2023-01-26T05:15:01.826Z,-0.16
2023-01-26T05:17:28.136Z,-0.10
2023-01-26T05:19:54.463Z,-0.13
2023-01-26T05:22:20.926Z,-0.25
2023-01-26T05:24:47.242Z,-0.36
2023-01-26T05:27:22.772Z,-0.41
2023-01-26T05:29:49.913Z,-0.34
2023-01-26T05:32:16.316Z,-0.42
2023-01-26T05:34:42.748Z,-0.50
2023-01-26T05:37:09.138Z,-0.29
2023-01-26T05:39:35.455Z,-0.30
2023-01-26T05:42:01.792Z,-0.40
2023-01-26T05:44:29.311Z,-0.52
2023-01-26T05:46:55.681Z,-0.44
2023-01-26T05:49:23.019Z,-0.31
2023-01-26T05:51:49.545Z,-0.36
2023-01-26T05:54:15.939Z,-0.43
2023-01-26T05:56:42.428Z,-0.64
2023-01-26T05:59:08.797Z,-0.57
2023-01-26T06:01:35.155Z,-0.68
2023-01-26T06:04:01.516Z,-0.52
2023-01-26T06:06:27.861Z,-0.42
2023-01-26T06:08:54.223Z,-0.85
2023-01-26T06:11:20.569Z,-0.58
2023-01-26T06:13:52.948Z,-0.43
2023-01-26T06:16:19.568Z,-0.58
2023-01-26T06:18:47.751Z,-0.39
2023-01-26T06:21:14.113Z,-0.34
2023-01-26T06:23:40.424Z,-0.36
2023-01-26T06:26:09.429Z,-0.25
2023-01-26T06:28:37.115Z,-0.19
2023-01-26T06:31:06.463Z,-0.15
2023-01-26T06:33:36.920Z,-0.15
2023-01-26T06:36:04.454Z,-0.07
2023-01-26T06:38:31.157Z,-0.28
2023-01-26T06:41:03.196Z,-0.47
2023-01-26T06:43:30.703Z,-0.34
2023-01-26T06:45:59.512Z,-0.39
2023-01-26T06:48:26.731Z,-0.38
2023-01-26T06:51:11.837Z,-0.14
2023-01-26T06:53:40.082Z,-0.10
2023-01-26T06:56:06.418Z,-0.22
2023-01-26T06:58:32.753Z,-0.15
2023-01-26T07:01:00.036Z,-0.19
2023-01-26T07:03:26.397Z,-0.35
2023-01-26T07:05:52.726Z,-0.16
2023-01-26T07:08:19.068Z,-0.13
2023-01-26T07:10:45.402Z,-0.20
2023-01-26T07:13:11.718Z,-0.23
2023-01-26T07:15:42.222Z,-0.11
2023-01-26T07:18:08.804Z,-0.02
2023-01-26T07:20:36.647Z,-0.16
2023-01-26T07:23:04.263Z,-0.03
2023-01-26T07:25:31.052Z,-0.17
2023-01-26T07:27:57.723Z,-0.19
2023-01-26T07:30:24.221Z,-0.12
2023-01-26T07:32:51.743Z,-0.14
2023-01-26T07:35:18.370Z,-0.09
2023-01-26T07:37:44.694Z,-0.14
2023-01-26T07:40:11.688Z,-0.15
2023-01-26T07:42:38.298Z,-0.05
2023-01-26T07:45:04.875Z,-0.04
2023-01-26T07:47:31.234Z,-0.08
2023-01-26T07:49:57.567Z,-0.21
2023-01-26T07:52:26.038Z,-0.15
2023-01-26T07:54:52.359Z,-0.14
2023-01-26T07:57:18.698Z,-0.18
2023-01-26T07:59:45.013Z,-0.13
2023-01-26T08:02:11.420Z,-0.29
2023-01-26T08:04:40.776Z,-0.28
2023-01-26T08:07:07.108Z,-0.24
2023-01-26T08:09:33.503Z,-0.43
2023-01-26T08:12:01.906Z,-0.20
2023-01-26T08:14:41.599Z,-0.14
2023-01-26T08:17:12.500Z,-0.16
2023-01-26T08:19:38.821Z,-0.14
2023-01-26T08:22:05.147Z,-0.03
2023-01-26T08:24:31.483Z,-0.07
2023-01-26T08:26:57.818Z,-0.01
2023-01-26T08:29:24.372Z,0.04
2023-01-26T08:31:50.837Z,-0.06
2023-01-26T08:34:17.267Z,-0.20
2023-01-26T08:36:43.660Z,-0.13
2023-01-26T08:39:10.248Z,-0.01
2023-01-26T08:41:36.779Z,0.01
2023-01-26T08:44:03.115Z,-0.16
2023-01-26T08:46:29.447Z,-0.07
2023-01-26T08:49:01.715Z,-0.04
2023-01-26T08:51:28.395Z,-0.15
2023-01-26T08:53:54.923Z,0.17
2023-01-26T08:56:27.374Z,0.19
2023-01-26T08:58:53.702Z,-0.37
2023-01-26T09:01:24.270Z,-0.24
2023-01-26T09:03:52.873Z,-0.16
2023-01-26T09:06:19.682Z,-0.14
2023-01-26T09:08:46.051Z,-0.16
2023-01-26T09:11:12.810Z,0.05
2023-01-26T09:13:40.044Z,0.04
2023-01-26T09:16:07.218Z,-0.05
2023-01-26T09:18:34.120Z,0.01
2023-01-26T09:21:07.575Z,0.00
2023-01-26T09:23:33.969Z,-0.14
2023-01-26T09:26:00.379Z,-0.29
2023-01-26T09:28:27.217Z,0.06
2023-01-26T09:30:53.758Z,-0.01
2023-01-26T09:33:29.111Z,0.11
2023-01-26T09:35:55.485Z,-0.02
2023-01-26T09:38:23.971Z,-0.10
2023-01-26T09:40:59.405Z,-0.09
2023-01-26T09:43:35.762Z,-0.06
2023-01-26T09:46:20.903Z,-0.12
2023-01-26T09:48:53.548Z,-0.02
2023-01-26T09:51:23.422Z,0.03
2023-01-26T09:53:54.440Z,0.05
2023-01-26T09:56:23.398Z,0.14
2023-01-26T09:59:00.052Z,0.15
2023-01-26T10:01:40.933Z,0.13
2023-01-26T10:04:07.342Z,0.19
2023-01-26T10:06:36.928Z,0.11
2023-01-26T10:09:08.419Z,0.00
2023-01-26T10:11:41.188Z,0.06
2023-01-26T10:14:12.227Z,0.18
2023-01-26T10:16:38.608Z,0.28
2023-01-26T10:19:06.018Z,0.25
2023-01-26T10:21:35.217Z,-0.18
2023-01-26T10:24:03.227Z,0.02
2023-01-26T10:26:33.732Z,0.11
2023-01-26T10:29:02.634Z,0.31
2023-01-26T10:31:30.752Z,0.06
2023-01-26T10:34:03.187Z,0.01
2023-01-26T10:36:30.509Z,-0.01
2023-01-26T10:39:03.527Z,0.17
2023-01-26T10:41:29.890Z,0.24
2023-01-26T10:43:57.931Z,0.07
2023-01-26T10:46:30.136Z,0.09
2023-01-26T10:48:58.247Z,0.09
2023-01-26T10:51:26.658Z,0.13
2023-01-26T10:54:13.062Z,0.06
2023-01-26T10:56:59.640Z,0.21
2023-01-26T10:59:28.210Z,-0.12
2023-01-26T11:01:59.401Z,-0.07
2023-01-26T11:04:26.215Z,0.06
2023-01-26T11:06:55.047Z,0.18
2023-01-26T11:09:25.567Z,0.12
2023-01-26T11:11:59.271Z,0.05
2023-01-26T11:14:25.823Z,0.19
2023-01-26T11:17:12.414Z,0.23
2023-01-26T11:19:47.577Z,-0.01
2023-01-26T11:22:27.753Z,0.13
2023-01-26T11:25:03.436Z,0.15
2023-01-26T11:27:35.631Z,0.02
2023-01-26T11:30:01.954Z,-0.30
2023-01-26T11:32:47.071Z,-0.19
2023-01-26T11:35:27.756Z,-0.02
2023-01-26T11:38:14.915Z,0.10
2023-01-26T11:41:01.510Z,0.01
2023-01-26T11:43:46.467Z,0.15
2023-01-26T11:46:12.820Z,0.21
2023-01-26T11:48:39.284Z,0.25
2023-01-26T11:51:28.128Z,0.12
2023-01-26T11:53:59.411Z,-0.02
2023-01-26T11:56:35.324Z,0.18
2023-01-26T11:59:06.034Z,0.28
2023-01-26T12:01:40.603Z,0.37
2023-01-26T12:04:10.868Z,0.19
2023-01-26T12:06:38.379Z,0.37
2023-01-26T12:09:10.483Z,0.35
2023-01-26T12:11:42.676Z,0.06
2023-01-26T12:14:16.353Z,0.24
2023-01-26T12:16:42.806Z,0.10
2023-01-26T12:19:11.307Z,0.25
2023-01-26T12:21:42.775Z,0.22
2023-01-26T12:24:33.152Z,0.25
2023-01-26T12:26:57.959Z,0.34
2023-01-26T12:29:28.771Z,0.22
2023-01-26T12:32:00.931Z,0.31
2023-01-26T12:34:28.653Z,0.37
2023-01-26T12:37:15.277Z,0.42
2023-01-26T12:39:45.737Z,0.31
2023-01-26T12:42:22.397Z,0.31
2023-01-26T12:45:04.740Z,0.22
2023-01-26T12:47:41.517Z,0.35
2023-01-26T12:50:22.885Z,0.34
2023-01-26T12:52:50.198Z,0.25
2023-01-26T12:55:19.913Z,0.16
2023-01-26T12:57:50.335Z,0.22
2023-01-26T13:00:20.956Z,0.34
2023-01-26T13:02:50.818Z,0.23
2023-01-26T13:05:27.966Z,0.28
2023-01-26T13:07:54.345Z,0.28
2023-01-26T13:10:27.942Z,0.34
2023-01-26T13:13:01.736Z,0.42
2023-01-26T13:15:29.269Z,0.42
2023-01-26T13:17:55.825Z,0.47
2023-01-26T13:20:22.174Z,0.42
2023-01-26T13:22:51.458Z,0.34
2023-01-26T13:25:34.279Z,0.21
2023-01-26T13:28:01.963Z,0.28
2023-01-26T13:30:31.333Z,0.35
2023-01-26T13:33:03.993Z,0.24
2023-01-26T13:35:31.241Z,0.30
2023-01-26T13:38:00.989Z,0.42
2023-01-26T13:40:35.980Z,0.22
2023-01-26T13:43:25.607Z,0.24
2023-01-26T13:46:11.894Z,0.27
2023-01-26T13:48:46.459Z,0.18
2023-01-26T13:51:18.294Z,0.09
2023-01-26T13:53:56.469Z,0.21
2023-01-26T13:56:24.995Z,0.27
2023-01-26T13:58:52.213Z,0.22
2023-01-26T14:01:19.392Z,0.19
2023-01-26T14:03:46.139Z,0.28
2023-01-26T14:06:19.804Z,-0.20
2023-01-26T14:08:51.102Z,-0.02
2023-01-26T14:11:20.989Z,0.09
2023-01-26T14:13:50.361Z,0.23
2023-01-26T14:16:43.200Z,0.28
2023-01-26T14:19:09.908Z,0.19
2023-01-26T14:21:55.904Z,0.21
2023-01-26T14:24:41.315Z,0.15
2023-01-26T14:27:23.428Z,0.13
2023-01-26T14:29:50.193Z,0.06
2023-01-26T14:32:18.595Z,0.23
2023-01-26T14:34:53.677Z,0.30
2023-01-26T14:37:20.113Z,0.31
2023-01-26T14:39:48.091Z,0.32
2023-01-26T14:42:16.735Z,0.21
2023-01-26T14:44:44.214Z,0.29
2023-01-26T14:47:21.052Z,0.26
2023-01-26T14:49:54.214Z,0.30
2023-01-26T14:52:28.513Z,0.23
2023-01-26T14:54:59.355Z,0.24
2023-01-26T14:57:27.137Z,0.08
2023-01-26T15:00:00.312Z,0.04
2023-01-26T15:02:37.471Z,0.10
2023-01-26T15:05:14.667Z,0.09
2023-01-26T15:07:40.971Z,0.12
2023-01-26T15:10:26.342Z,0.13
2023-01-26T15:12:56.580Z,0.07
2023-01-26T15:15:27.136Z,0.04
2023-01-26T15:18:12.337Z,0.01
2023-01-26T15:20:39.921Z,-0.01
2023-01-26T15:23:21.552Z,0.10
2023-01-26T15:25:48.557Z,0.07
2023-01-26T15:28:19.355Z,0.22
2023-01-26T15:30:47.752Z,-0.06
2023-01-26T15:33:36.055Z,-0.07
2023-01-26T15:36:02.400Z,-0.12
2023-01-26T15:38:28.818Z,-0.03
2023-01-26T15:40:55.151Z,-0.01
2023-01-26T15:43:24.732Z,-0.12
2023-01-26T15:45:57.941Z,0.04
2023-01-26T15:48:24.835Z,0.02
2023-01-26T15:50:51.205Z,0.05
2023-01-26T15:53:24.418Z,0.06
2023-01-26T15:55:56.091Z,-0.07
2023-01-26T15:58:22.880Z,-0.10
2023-01-26T16:00:50.135Z,0.02
2023-01-26T16:03:17.532Z,0.04
2023-01-26T16:05:44.381Z,0.05
2023-01-26T16:08:10.729Z,0.00
2023-01-26T16:10:37.590Z,0.03
2023-01-26T16:13:13.206Z,0.02
2023-01-26T16:15:42.063Z,0.01
2023-01-26T16:18:08.720Z,-0.13
2023-01-26T16:20:42.060Z,-0.03
2023-01-26T16:23:14.287Z,-0.10
2023-01-26T16:25:40.935Z,-0.10
2023-01-26T16:28:07.316Z,-0.25
2023-01-26T16:30:39.868Z,-0.23
2023-01-26T16:33:11.854Z,-0.10
2023-01-26T16:35:38.278Z,-0.08
2023-01-26T16:38:07.189Z,-0.17
2023-01-26T16:40:33.886Z,-0.19
2023-01-26T16:43:01.572Z,-0.20
2023-01-26T16:45:28.140Z,-0.15
2023-01-26T16:47:56.700Z,-0.20
2023-01-26T16:50:25.725Z,-0.03
2023-01-26T16:52:52.521Z,0.01
2023-01-26T16:55:19.077Z,-0.10
2023-01-26T16:57:50.318Z,-0.05
2023-01-26T17:00:18.329Z,-0.07
2023-01-26T17:02:47.659Z,-0.09
2023-01-26T17:05:15.211Z,-0.05
2023-01-26T17:07:41.930Z,-0.01
2023-01-26T17:10:09.860Z,-0.20
2023-01-26T17:12:40.914Z,-0.14
2023-01-26T17:15:08.225Z,-0.23
2023-01-26T17:17:34.571Z,-0.19
2023-01-26T17:20:17.662Z,-0.18
2023-01-26T17:22:45.648Z,-0.11
2023-01-26T17:25:16.056Z,-0.17
2023-01-26T17:27:43.383Z,-0.25
2023-01-26T17:30:11.019Z,-0.19
2023-01-26T17:32:37.331Z,-0.17
2023-01-26T17:35:04.741Z,-0.04
2023-01-26T17:37:31.608Z,0.02
2023-01-26T17:39:58.111Z,0.02
2023-01-26T17:42:25.631Z,0.01
2023-01-26T17:44:52.390Z,0.02
2023-01-26T17:47:18.734Z,-0.02
2023-01-26T17:49:45.200Z,-0.05
2023-01-26T17:52:14.475Z,-0.03
2023-01-26T17:54:41.140Z,-0.12
2023-01-26T17:57:07.588Z,-0.02
2023-01-26T17:59:33.925Z,0.05
2023-01-26T18:02:00.284Z,-0.10
2023-01-26T18:04:28.779Z,-0.01
2023-01-26T18:06:59.272Z,-0.02
2023-01-26T18:09:25.600Z,0.09
2023-01-26T18:11:52.286Z,-0.06
2023-01-26T18:14:18.654Z,-0.33
2023-01-26T18:16:45.054Z,-0.18
2023-01-26T18:19:11.482Z,-0.19
2023-01-26T18:21:38.111Z,-0.14
2023-01-26T18:24:05.111Z,-0.16
2023-01-26T18:26:33.115Z,-0.30
2023-01-26T18:29:01.257Z,-0.14
2023-01-26T18:31:30.614Z,-0.15
2023-01-26T18:33:57.705Z,-0.21
2023-01-26T18:36:24.185Z,-0.17
2023-01-26T18:38:52.199Z,-0.10
2023-01-26T18:41:19.287Z,-0.11
2023-01-26T18:43:49.930Z,-0.16
2023-01-26T18:46:16.463Z,-0.14
2023-01-26T18:48:42.873Z,-0.01
2023-01-26T18:51:09.265Z,-0.10
2023-01-26T18:53:40.635Z,-0.10
2023-01-26T18:56:11.047Z,-0.21
2023-01-26T18:58:38.219Z,-0.04
2023-01-26T19:01:06.117Z,-0.19
2023-01-26T19:03:36.639Z,0.01
2023-01-26T19:06:04.081Z,0.05
2023-01-26T19:08:31.006Z,-0.02
2023-01-26T19:11:02.970Z,-0.01
2023-01-26T19:13:29.517Z,0.05
2023-01-26T19:15:56.958Z,0.06
2023-01-26T19:18:23.663Z,0.05
2023-01-26T19:20:57.379Z,0.10
2023-01-26T19:23:23.828Z,-0.14
2023-01-26T19:25:50.291Z,-0.06
2023-01-26T19:28:16.911Z,-0.19
2023-01-26T19:30:44.363Z,0.02
2023-01-26T19:33:28.005Z,-0.01
2023-01-26T19:35:57.746Z,-0.06
2023-01-26T19:38:27.334Z,-0.11
2023-01-26T19:40:53.741Z,0.08
2023-01-26T19:43:20.512Z,0.01
2023-01-26T19:45:50.636Z,0.07
2023-01-26T19:48:16.965Z,-0.03
2023-01-26T19:50:43.535Z,-0.01
2023-01-26T19:53:10.222Z,0.15
2023-01-26T19:55:36.555Z,0.09
2023-01-26T19:58:02.961Z,0.16
2023-01-26T20:00:29.543Z,0.01
2023-01-26T20:03:00.502Z,0.12
2023-01-26T20:05:26.869Z,0.19
2023-01-26T20:07:53.246Z,0.18
2023-01-26T20:10:20.723Z,0.27
2023-01-26T20:12:47.041Z,0.15
2023-01-26T20:15:14.878Z,0.22
2023-01-26T20:17:42.728Z,0.18
2023-01-26T20:20:12.305Z,0.09
2023-01-26T20:22:45.911Z,0.08
2023-01-26T20:25:12.999Z,-0.01
2023-01-26T20:27:44.930Z,0.17
2023-01-26T20:30:12.775Z,-0.02
2023-01-26T20:32:39.423Z,-0.04
2023-01-26T20:35:08.649Z,0.10
2023-01-26T20:37:36.027Z,0.01
2023-01-26T20:40:03.134Z,0.01
2023-01-26T20:42:31.052Z,0.04
2023-01-26T20:44:59.124Z,-0.03
2023-01-26T20:47:25.897Z,-0.14
2023-01-26T20:49:52.965Z,-0.19
2023-01-26T20:52:20.049Z,-0.18
2023-01-26T20:54:46.378Z,-0.04
2023-01-26T20:57:17.322Z,0.02
2023-01-26T20:59:43.836Z,0.08
2023-01-26T21:02:14.320Z,0.12
2023-01-26T21:04:41.417Z,-0.08
2023-01-26T21:07:08.747Z,0.03
2023-01-26T21:09:35.461Z,-0.07
2023-01-26T21:12:02.320Z,0.01
2023-01-26T21:14:29.207Z,0.05
2023-01-26T21:16:58.149Z,-0.05
2023-01-26T21:19:24.900Z,0.07
2023-01-26T21:21:51.253Z,0.01
2023-01-26T21:24:17.672Z,0.01
2023-01-26T21:26:44.137Z,0.01
2023-01-26T21:29:13.201Z,-0.05
2023-01-26T21:31:40.628Z,0.00
2023-01-26T21:34:06.984Z,-0.12
2023-01-26T21:36:34.172Z,-0.07
2023-01-26T21:39:01.058Z,-0.01
2023-01-26T21:41:46.952Z,-0.02
2023-01-26T21:44:20.389Z,0.01
2023-01-26T21:46:47.441Z,0.05
2023-01-26T21:49:14.261Z,-0.08
2023-01-26T21:51:59.423Z,0.06
2023-01-26T21:54:26.011Z,0.12
2023-01-26T21:56:52.334Z,0.09
2023-01-26T21:59:19.363Z,0.02
2023-01-26T22:01:46.934Z,-0.13
2023-01-26T22:04:14.744Z,-0.05
2023-01-26T22:06:42.104Z,-0.06
2023-01-26T22:09:09.990Z,0.01
2023-01-26T22:11:37.020Z,-0.01
2023-01-26T22:14:04.374Z,-0.04
2023-01-26T22:16:30.714Z,-0.04
2023-01-26T22:18:58.214Z,0.09
2023-01-26T22:21:24.954Z,-0.03
2023-01-26T22:23:52.819Z,0.04
2023-01-26T22:26:20.021Z,0.06
2023-01-26T22:28:53.558Z,0.13
2023-01-26T22:31:22.424Z,0.21
2023-01-26T22:33:50.323Z,0.05
2023-01-26T22:36:17.086Z,0.14
2023-01-26T22:38:43.559Z,-0.05
2023-01-26T22:41:13.182Z,0.09
2023-01-26T22:43:40.588Z,0.11
2023-01-26T22:46:08.285Z,0.02
2023-01-26T22:48:36.227Z,0.06
2023-01-26T22:51:06.865Z,0.08
2023-01-26T22:53:33.368Z,0.09
2023-01-26T22:55:59.694Z,-0.04
2023-01-26T22:58:26.218Z,0.05
2023-01-26T23:00:52.689Z,-0.08
2023-01-26T23:03:19.141Z,-0.05
2023-01-26T23:05:47.788Z,0.02
2023-01-26T23:08:14.191Z,0.04
2023-01-26T23:10:40.635Z,0.02
2023-01-26T23:13:07.119Z,0.09
2023-01-26T23:15:33.480Z,0.12
2023-01-26T23:18:00.808Z,0.12
2023-01-26T23:20:27.139Z,0.13
2023-01-26T23:22:55.522Z,0.10
2023-01-26T23:25:40.329Z,0.00
2023-01-26T23:28:08.459Z,-0.05
2023-01-26T23:30:42.658Z,0.09
2023-01-26T23:33:08.983Z,0.05
2023-01-26T23:35:36.548Z,0.07
2023-01-26T23:38:02.965Z,0.01
2023-01-26T23:40:32.351Z,0.01
2023-01-26T23:43:15.440Z,-0.09
2023-01-26T23:45:43.217Z,-0.07
2023-01-26T23:48:09.630Z,0.01
2023-01-26T23:50:35.998Z,0.02
2023-01-26T23:53:02.366Z,-0.05
2023-01-26T23:55:30.735Z,-0.03
2023-01-26T23:57:57.031Z,0.03
